Time;durP1;ratioP1;P1;durP2;ratioP2;P2;SDS_P1;SDS_P2;PMS_P1;PMS_P2;Temp;Humidity;BMP_temperature;BMP_pressure;BME280_temperature;BME280_humidity;BME280_pressure;Samples;Min_cycle;Max_cycle;Signal;HPM_P1;HPM_P2
2023/06/05 00:00:28;;;;;;;10.85;4.50;;;;;;;12.61;100.00;102334.50;5090886;28;20077;-51
2023/06/05 00:02:53;;;;;;;6.95;4.30;;;;;;;12.58;100.00;102334.84;5080355;28;20035;-49
2023/06/05 00:05:19;;;;;;;5.47;3.83;;;;;;;12.54;100.00;102333.47;5069994;28;20383;-50
2023/06/05 00:07:44;;;;;;;9.23;4.63;;;;;;;12.47;100.00;102338.66;5071435;28;20386;-47
2023/06/05 00:10:10;;;;;;;14.05;4.93;;;;;;;12.42;100.00;102343.66;5071352;28;20389;-50
2023/06/05 00:12:36;;;;;;;8.50;4.63;;;;;;;12.40;100.00;102345.69;5079602;28;20028;-49
2023/06/05 00:15:02;;;;;;;6.43;4.53;;;;;;;12.42;100.00;102336.41;5071313;28;20016;-47
2023/06/05 00:17:28;;;;;;;10.57;4.68;;;;;;;12.40;100.00;102343.84;5070222;28;20154;-50
2023/06/05 00:19:53;;;;;;;11.95;5.10;;;;;;;12.34;100.00;102341.75;5071561;28;20052;-49
2023/06/05 00:22:19;;;;;;;7.53;4.55;;;;;;;12.30;100.00;102343.09;5071345;28;20449;-49
2023/06/05 00:24:44;;;;;;;7.80;4.90;;;;;;;12.25;100.00;102340.00;5077331;28;20039;-50
2023/06/05 00:27:09;;;;;;;10.27;5.10;;;;;;;12.27;100.00;102341.56;5093873;28;20028;-52
2023/06/05 00:29:35;;;;;;;10.73;5.18;;;;;;;12.19;100.00;102338.78;5091400;28;20021;-49
2023/06/05 00:32:00;;;;;;;11.88;5.30;;;;;;;12.17;100.00;102346.19;5076318;28;20454;-50
2023/06/05 00:34:25;;;;;;;8.38;4.72;;;;;;;12.17;100.00;102345.34;5075164;28;20036;-52
2023/06/05 00:36:52;;;;;;;8.00;5.20;;;;;;;12.10;100.00;102344.25;5088380;28;20032;-47
2023/06/05 00:39:20;;;;;;;11.23;5.13;;;;;;;12.13;100.00;102352.88;5095746;28;20581;-52
2023/06/05 00:41:46;;;;;;;11.30;5.20;;;;;;;12.13;100.00;102347.50;5082974;28;20036;-48
2023/06/05 00:44:11;;;;;;;7.93;5.35;;;;;;;12.07;100.00;102343.56;5090244;28;20374;-51
2023/06/05 00:46:37;;;;;;;9.75;5.75;;;;;;;12.08;100.00;102345.28;5094642;28;20085;-49
2023/06/05 00:49:03;;;;;;;9.35;5.70;;;;;;;12.06;100.00;102339.19;5092374;28;20046;-51
2023/06/05 00:51:28;;;;;;;9.27;5.32;;;;;;;12.07;100.00;102338.16;5080792;28;20040;-50
2023/06/05 00:53:54;;;;;;;10.95;5.53;;;;;;;12.05;100.00;102345.56;5073098;28;20064;-49
2023/06/05 00:56:20;;;;;;;9.15;5.90;;;;;;;12.01;100.00;102344.19;5072892;28;20028;-51
2023/06/05 00:58:46;;;;;;;12.15;6.03;;;;;;;12.01;100.00;102338.78;5075495;28;20045;-47
2023/06/05 01:01:12;;;;;;;9.63;6.00;;;;;;;12.01;100.00;102346.88;5094066;28;20036;-50
2023/06/05 01:03:39;;;;;;;13.02;6.05;;;;;;;12.02;100.00;102348.56;5080916;28;20367;-52
2023/06/05 01:06:05;;;;;;;13.38;6.20;;;;;;;11.99;100.00;102348.03;5074135;28;20033;-52
2023/06/05 01:08:41;;;;;;;12.70;6.30;;;;;;;12.00;100.00;102334.38;5056348;28;20049;-49
2023/06/05 01:11:33;;;;;;;15.07;7.05;;;;;;;11.95;100.00;102339.38;5077424;28;20039;-52
2023/06/05 01:14:04;;;;;;;11.32;6.10;;;;;;;11.95;100.00;102342.09;5083187;28;20094;-52
2023/06/05 01:16:34;;;;;;;13.68;6.75;;;;;;;11.93;100.00;102344.13;5084005;28;20032;-49
2023/06/05 01:19:02;;;;;;;11.35;6.90;;;;;;;11.91;100.00;102331.78;5074347;28;20117;-50
2023/06/05 01:21:31;;;;;;;13.48;6.50;;;;;;;11.90;100.00;102330.94;5074141;28;20040;-52
2023/06/05 01:23:58;;;;;;;12.27;7.15;;;;;;;11.86;100.00;102341.16;5092911;28;20035;-49
2023/06/05 01:26:52;;;;;;;13.85;6.93;;;;;;;11.84;100.00;102331.50;5090496;28;20036;-49
2023/06/05 01:29:21;;;;;;;14.18;7.00;;;;;;;11.83;100.00;102329.81;5079359;28;20046;-53
2023/06/05 01:31:47;;;;;;;12.60;7.05;;;;;;;11.77;100.00;102333.09;5083232;28;20340;-51
2023/06/05 01:34:15;;;;;;;12.20;7.93;;;;;;;11.75;100.00;102333.28;5073202;28;20056;-50
2023/06/05 01:36:41;;;;;;;12.20;7.30;;;;;;;11.75;100.00;102335.97;5073592;28;20032;-49
2023/06/05 01:39:08;;;;;;;11.05;6.70;;;;;;;11.77;100.00;102327.72;5087904;28;20119;-47
2023/06/05 01:41:34;;;;;;;13.65;7.70;;;;;;;11.74;100.00;102331.59;5083339;28;20036;-53
2023/06/05 01:44:00;;;;;;;12.73;7.82;;;;;;;11.74;100.00;102325.34;5077848;28;20043;-48
2023/06/05 01:46:25;;;;;;;13.45;8.10;;;;;;;11.69;100.00;102328.50;5087938;28;20390;-49
2023/06/05 01:48:52;;;;;;;17.30;8.05;;;;;;;11.69;100.00;102316.84;5091768;28;20047;-48
2023/06/05 01:51:18;;;;;;;17.42;8.70;;;;;;;11.68;100.00;102321.41;5072905;28;20097;-48
2023/06/05 01:53:43;;;;;;;14.23;8.15;;;;;;;11.62;100.00;102317.47;5073776;28;20510;-48
2023/06/05 01:56:10;;;;;;;14.93;8.23;;;;;;;11.56;100.00;102320.78;5075040;28;20036;-48
2023/06/05 01:58:36;;;;;;;16.13;8.35;;;;;;;11.61;100.00;102313.09;5088518;28;20047;-49
2023/06/05 02:01:03;;;;;;;14.07;8.15;;;;;;;11.58;100.00;102326.00;5080660;28;20085;-49
2023/06/05 02:03:28;;;;;;;16.10;9.30;;;;;;;11.56;100.00;102319.94;5073740;28;20385;-51
2023/06/05 02:05:54;;;;;;;17.52;9.13;;;;;;;11.54;100.00;102319.25;5087424;28;20044;-50
2023/06/05 02:08:22;;;;;;;13.07;8.93;;;;;;;11.51;100.00;102324.94;5072421;28;20078;-50
2023/06/05 02:10:48;;;;;;;;;;;;;;;11.48;100.00;102319.84;5074266;28;20424;-52
2023/06/05 02:13:18;;;;;;;14.10;8.32;;;;;;;11.44;100.00;102322.00;5093523;28;19959;-49
2023/06/05 02:15:44;;;;;;;12.10;8.43;;;;;;;11.44;100.00;102319.28;5094885;28;20043;-49
2023/06/05 02:18:10;;;;;;;14.20;7.93;;;;;;;11.41;100.00;102322.31;5092563;28;20020;-51
2023/06/05 02:20:36;;;;;;;18.63;9.18;;;;;;;11.45;100.00;102323.69;5092555;28;20458;-48
2023/06/05 02:23:02;;;;;;;18.60;8.80;;;;;;;11.45;100.00;102326.38;5076926;28;20044;-49
2023/06/05 02:25:28;;;;;;;17.20;10.10;;;;;;;11.40;100.00;102323.28;5073571;28;20410;-47
2023/06/05 02:27:54;;;;;;;16.48;8.90;;;;;;;11.35;100.00;102314.81;5076079;28;20024;-48
2023/06/05 02:30:20;;;;;;;13.88;8.75;;;;;;;11.33;100.00;102320.34;5093445;28;20036;-50
2023/06/05 02:32:45;;;;;;;16.65;9.10;;;;;;;11.30;100.00;102317.13;5093082;28;20024;-47
2023/06/05 02:35:11;;;;;;;16.60;8.85;;;;;;;11.30;100.00;102315.28;5091396;28;20136;-47
2023/06/05 02:37:43;;;;;;;17.38;9.75;;;;;;;11.28;100.00;102313.72;5077105;28;20097;-49
2023/06/05 02:40:10;;;;;;;16.27;8.48;;;;;;;11.30;100.00;102322.50;5075649;28;20422;-48
2023/06/05 02:42:35;;;;;;;16.60;9.00;;;;;;;11.30;100.00;102322.50;5086053;28;20501;-49
2023/06/05 02:45:01;;;;;;;16.42;8.63;;;;;;;11.26;100.00;102321.09;5092657;28;20039;-48
2023/06/05 02:47:26;;;;;;;13.45;8.60;;;;;;;11.21;100.00;102314.31;5090135;28;20024;-49
2023/06/05 02:49:52;;;;;;;16.02;8.50;;;;;;;11.27;100.00;102315.56;5086433;28;20085;-49
2023/06/05 02:52:17;;;;;;;18.85;9.27;;;;;;;11.21;100.00;102322.38;5092324;28;20043;-47
2023/06/05 02:54:42;;;;;;;23.65;8.73;;;;;;;11.18;100.00;102311.06;5092442;28;20031;-49
2023/06/05 02:57:08;;;;;;;17.75;9.05;;;;;;;11.19;100.00;102310.94;5092381;28;20042;-49
2023/06/05 02:59:39;;;;;;;19.30;9.20;;;;;;;11.17;100.00;102312.09;5090016;28;20071;-47
2023/06/05 03:02:05;;;;;;;16.77;8.82;;;;;;;11.11;100.00;102308.16;5075128;28;20029;-50
2023/06/05 03:04:32;;;;;;;19.63;10.45;;;;;;;11.11;100.00;102310.84;5084225;28;20028;-49
2023/06/05 03:06:57;;;;;;;13.48;8.82;;;;;;;11.10;100.00;102306.44;5076495;28;20043;-51
2023/06/05 03:09:23;;;;;;;16.92;10.20;;;;;;;11.04;100.00;102307.03;5084037;28;20028;-50
2023/06/05 03:11:48;;;;;;;13.95;9.10;;;;;;;10.98;100.00;102307.66;5071022;28;20088;-52
2023/06/05 03:14:14;;;;;;;14.82;9.15;;;;;;;10.96;100.00;102299.69;5072136;28;20024;-48
2023/06/05 03:16:43;;;;;;;21.52;9.40;;;;;;;10.94;100.00;102303.53;5072671;28;20090;-50
2023/06/05 03:19:09;;;;;;;16.98;9.48;;;;;;;10.90;100.00;102307.50;5083607;28;20071;-52
2023/06/05 03:21:35;;;;;;;16.80;8.48;;;;;;;10.91;100.00;102304.69;5073687;28;20060;-48
2023/06/05 03:24:01;;;;;;;15.55;8.57;;;;;;;10.89;100.00;102308.53;5082306;28;20032;-49
2023/06/05 03:26:27;;;;;;;19.63;9.15;;;;;;;10.88;100.00;102310.38;5071844;28;20024;-48
2023/06/05 03:28:52;;;;;;;19.02;8.75;;;;;;;10.88;100.00;102309.53;5082455;28;20081;-51
2023/06/05 03:31:18;;;;;;;12.50;7.90;;;;;;;10.89;100.00;102306.66;5085137;28;20102;-50
2023/06/05 03:33:44;;;;;;;19.08;7.57;;;;;;;10.91;100.00;102301.16;5071553;28;20105;-47
2023/06/05 03:36:09;;;;;;;17.27;8.45;;;;;;;10.92;100.00;102297.44;5082813;28;20020;-48
2023/06/05 03:38:34;;;;;;;13.00;7.40;;;;;;;10.94;100.00;102295.47;5087242;28;20039;-50
2023/06/05 03:41:00;;;;;;;13.35;8.20;;;;;;;10.92;100.00;102297.44;5088920;28;20119;-49
2023/06/05 03:43:26;;;;;;;16.48;7.97;;;;;;;10.89;100.00;102289.66;5071468;28;20063;-47
2023/06/05 03:45:53;;;;;;;15.38;8.85;;;;;;;10.84;100.00;102289.25;5072959;28;20490;-50
2023/06/05 03:48:20;;;;;;;18.25;8.13;;;;;;;10.81;100.00;102298.47;5067706;28;20082;-49
2023/06/05 03:50:46;;;;;;;15.88;8.52;;;;;;;10.81;100.00;102303.88;5080521;28;20473;-48
2023/06/05 03:53:13;;;;;;;9.35;6.80;;;;;;;10.83;100.00;102306.44;5071387;28;20043;-52
2023/06/05 03:55:44;;;;;;;12.00;7.68;;;;;;;10.81;100.00;102300.34;5086387;28;20119;-49
2023/06/05 03:58:14;;;;;;;13.63;7.53;;;;;;;10.81;100.00;102300.34;5071247;28;20119;-49
2023/06/05 04:00:44;;;;;;;10.32;6.88;;;;;;;10.85;100.00;102301.72;5087540;28;20032;-51
2023/06/05 04:03:13;;;;;;;11.77;7.07;;;;;;;10.83;100.00;102301.03;5071122;28;20033;-50
2023/06/05 04:05:39;;;;;;;13.02;7.45;;;;;;;10.87;100.00;102310.50;5071203;28;20109;-49
2023/06/05 04:08:05;;;;;;;16.35;7.75;;;;;;;10.87;100.00;102313.19;5078915;28;20419;-51
2023/06/05 04:10:31;;;;;;;12.23;7.25;;;;;;;10.87;100.00;102307.81;5085512;28;20032;-47
2023/06/05 04:12:56;;;;;;;12.40;7.30;;;;;;;10.87;100.00;102307.81;5072914;28;20028;-47
2023/06/05 04:15:23;;;;;;;13.77;6.95;;;;;;;10.93;100.00;102307.25;5070054;28;20056;-47
2023/06/05 04:17:48;;;;;;;13.77;7.40;;;;;;;10.97;100.00;102306.78;5080461;28;20028;-48
2023/06/05 04:20:14;;;;;;;16.75;7.40;;;;;;;11.01;100.00;102309.19;5083608;28;20028;-48
2023/06/05 04:22:40;;;;;;;14.57;7.25;;;;;;;11.09;100.00;102312.00;5084697;28;20016;-47
2023/06/05 04:25:06;;;;;;;10.68;7.07;;;;;;;11.08;100.00;102319.19;5076322;28;20054;-47
2023/06/05 04:27:31;;;;;;;10.95;6.85;;;;;;;11.12;100.00;102307.13;5081009;28;20032;-50
2023/06/05 04:29:57;;;;;;;14.98;7.32;;;;;;;11.19;100.00;102307.41;5073962;28;20450;-49
2023/06/05 04:32:22;;;;;;;12.65;6.93;;;;;;;11.28;100.00;102309.19;5078776;28;20032;-48
2023/06/05 04:34:47;;;;;;;12.75;6.95;;;;;;;11.34;100.00;102313.13;5090207;28;20176;-49
2023/06/05 04:37:13;;;;;;;12.23;7.00;;;;;;;11.41;100.00;102315.06;5082694;28;20032;-50
2023/06/05 04:39:38;;;;;;;17.25;6.95;;;;;;;11.44;100.00;102305.81;5069116;28;20381;-50
2023/06/05 04:42:04;;;;;;;13.65;6.90;;;;;;;11.51;100.00;102317.69;5083320;28;20028;-51
2023/06/05 04:44:31;;;;;;;15.00;6.55;;;;;;;11.62;100.00;102311.25;5077370;28;20020;-53
2023/06/05 04:46:56;;;;;;;14.18;6.88;;;;;;;11.68;100.00;102315.16;5074968;28;20035;-50
2023/06/05 04:49:22;;;;;;;14.18;6.80;;;;;;;11.72;100.00;102312.03;5074284;28;20043;-50
2023/06/05 04:51:48;;;;;;;16.60;6.72;;;;;;;11.75;100.00;102314.41;5085753;28;20035;-49
2023/06/05 04:54:14;;;;;;;12.35;6.97;;;;;;;11.82;100.00;102318.19;5089793;28;20036;-49
2023/06/05 04:56:40;;;;;;;9.23;5.95;;;;;;;11.90;100.00;102317.44;5091371;28;20058;-49
2023/06/05 04:59:06;;;;;;;12.45;6.38;;;;;;;12.00;100.00;102320.03;5076962;28;20044;-51
2023/06/05 05:01:32;;;;;;;12.05;6.63;;;;;;;12.01;100.00;102311.81;5081989;28;20131;-50
2023/06/05 05:03:57;;;;;;;15.27;6.47;;;;;;;12.14;100.00;102310.53;5066829;28;20089;-49
2023/06/05 05:06:25;;;;;;;14.50;6.30;;;;;;;12.22;100.00;102303.38;5069689;28;20028;-48
2023/06/05 05:08:50;;;;;;;13.17;6.77;;;;;;;12.27;100.00;102309.16;5085096;28;20478;-49
2023/06/05 05:11:17;;;;;;;12.77;6.55;;;;;;;12.35;100.00;102308.38;5086831;28;20301;-49
2023/06/05 05:13:43;;;;;;;12.27;6.53;;;;;;;12.40;100.00;102305.19;5077416;28;20036;-49
2023/06/05 05:16:09;;;;;;;12.25;6.53;;;;;;;12.49;100.00;102315.03;5081707;28;20033;-46
2023/06/05 05:18:43;;;;;;;11.55;6.75;;;;;;;12.66;100.00;102297.91;5085382;28;20115;-53
2023/06/05 05:21:09;;;;;;;11.18;5.85;;;;;;;12.76;100.00;102299.66;5069049;28;20477;-51
2023/06/05 05:23:35;;;;;;;11.20;6.18;;;;;;;12.77;100.00;102296.81;5072186;28;20031;-50
2023/06/05 05:26:01;;;;;;;13.98;6.38;;;;;;;12.81;100.00;102298.16;5086556;28;20028;-49
2023/06/05 05:28:27;;;;;;;8.73;6.32;;;;;;;12.85;100.00;102296.84;5083539;28;20031;-53
2023/06/05 05:30:52;;;;;;;10.38;6.35;;;;;;;12.91;100.00;102295.38;5080475;28;20378;-47
2023/06/05 05:33:18;;;;;;;17.00;6.18;;;;;;;12.99;100.00;102305.38;5093436;28;20125;-52
2023/06/05 05:35:44;;;;;;;13.45;6.55;;;;;;;13.08;100.00;102298.97;5080075;28;20032;-51
2023/06/05 05:38:10;;;;;;;12.48;6.30;;;;;;;13.24;100.00;102299.03;5079353;28;20024;-50
2023/06/05 05:40:35;;;;;;;10.93;5.90;;;;;;;13.30;100.00;102301.13;5086748;28;20042;-48
2023/06/05 05:43:00;;;;;;;9.45;5.60;;;;;;;13.34;100.00;102304.34;5073104;28;20024;-48
2023/06/05 05:45:26;;;;;;;9.52;6.35;;;;;;;13.45;100.00;102297.78;5082127;28;20595;-50
2023/06/05 05:47:51;;;;;;;10.32;6.60;;;;;;;13.57;100.00;102291.03;5063706;28;21429;-49
2023/06/05 05:50:17;;;;;;;15.45;6.45;;;;;;;13.55;100.00;102288.50;5064804;28;20035;-48
2023/06/05 05:52:43;;;;;;;23.65;6.35;;;;;;;13.68;100.00;102290.72;5087473;28;20118;-52
2023/06/05 05:55:09;;;;;;;12.70;6.32;;;;;;;13.79;100.00;102287.69;5082190;28;20381;-50
2023/06/05 05:57:34;;;;;;;16.42;6.60;;;;;;;13.91;100.00;102288.22;5083417;28;20355;-48
2023/06/05 06:00:00;;;;;;;14.07;6.80;;;;;;;14.04;100.00;102285.00;5081804;28;20129;-50
2023/06/05 06:02:25;;;;;;;14.27;6.68;;;;;;;14.10;100.00;102276.19;5079428;28;20538;-47
2023/06/05 06:04:51;;;;;;;17.77;6.75;;;;;;;14.20;100.00;102293.09;5084186;28;20493;-50
2023/06/05 06:07:16;;;;;;;21.30;7.43;;;;;;;14.30;100.00;102292.94;5082683;28;20020;-53
2023/06/05 06:09:42;;;;;;;11.85;6.40;;;;;;;14.30;100.00;102292.06;5084776;28;20119;-51
2023/06/05 06:12:08;;;;;;;12.20;6.05;;;;;;;14.27;100.00;102294.13;5087366;28;20030;-50
2023/06/05 06:14:34;;;;;;;13.07;7.20;;;;;;;14.27;100.00;102293.28;5085546;28;20059;-50
2023/06/05 06:17:00;;;;;;;10.25;6.45;;;;;;;14.30;100.00;102297.47;5082591;28;20066;-50
2023/06/05 06:19:27;;;;;;;11.88;5.55;;;;;;;14.40;100.00;102296.31;5085547;28;20042;-49
2023/06/05 06:21:55;;;;;;;11.55;6.03;;;;;;;14.49;100.00;102294.44;5085953;28;20031;-47
2023/06/05 06:24:21;;;;;;;10.82;5.80;;;;;;;14.68;100.00;102285.09;5085952;28;20039;-50
2023/06/05 06:26:47;;;;;;;13.90;5.75;;;;;;;14.93;100.00;102281.28;5084989;28;20020;-48
2023/06/05 06:29:18;;;;;;;12.32;5.70;;;;;;;15.25;100.00;102289.44;5081643;28;20060;-52
2023/06/05 06:31:44;;;;;;;8.98;5.20;;;;;;;15.42;100.00;102299.16;5081675;28;20051;-50
2023/06/05 06:34:10;;;;;;;9.35;5.30;;;;;;;15.49;100.00;102297.44;5084831;28;20446;-47
2023/06/05 06:36:40;;;;;;;6.43;4.78;;;;;;;15.48;100.00;102295.75;5066966;28;20042;-49
2023/06/05 06:39:08;;;;;;;9.40;5.43;;;;;;;15.44;100.00;102301.72;5085055;28;20036;-49
2023/06/05 06:41:35;;;;;;;8.15;5.07;;;;;;;15.53;100.00;102296.06;5085859;28;20028;-49
2023/06/05 06:44:01;;;;;;;11.13;5.28;;;;;;;15.62;100.00;102299.56;5084333;28;20127;-49
2023/06/05 06:46:26;;;;;;;11.93;5.03;;;;;;;15.66;100.00;102291.91;5086053;28;20020;-49
2023/06/05 06:48:51;;;;;;;11.60;5.57;;;;;;;15.83;100.00;102293.50;5083835;28;20470;-51
2023/06/05 06:51:17;;;;;;;11.43;5.30;;;;;;;16.03;100.00;102296.56;5084340;28;20438;-50
2023/06/05 06:53:43;;;;;;;12.77;5.97;;;;;;;16.27;100.00;102291.94;5087749;28;20516;-50
2023/06/05 06:56:09;;;;;;;15.73;4.80;;;;;;;16.55;100.00;102287.59;5087073;28;20032;-49
2023/06/05 06:58:35;;;;;;;10.18;4.78;;;;;;;16.86;100.00;102295.59;5086266;28;20386;-49
2023/06/05 07:01:01;;;;;;;8.57;5.25;;;;;;;17.17;100.00;102290.94;5066275;28;20032;-49
2023/06/05 07:03:26;;;;;;;9.35;4.50;;;;;;;17.41;100.00;102297.97;5086622;28;20028;-49
2023/06/05 07:05:51;;;;;;;13.90;5.20;;;;;;;17.85;100.00;102294.25;5082933;28;20021;-47
2023/06/05 07:08:17;;;;;;;7.20;4.75;;;;;;;18.53;100.00;102292.72;5086495;28;20042;-51
2023/06/05 07:10:42;;;;;;;6.28;4.45;;;;;;;19.08;100.00;102296.41;5086614;28;20024;-55
2023/06/05 07:13:08;;;;;;;8.25;4.13;;;;;;;19.65;100.00;102296.19;5085869;28;20024;-53
2023/06/05 07:15:33;;;;;;;6.95;4.28;;;;;;;20.06;96.79;102300.66;5084365;28;20043;-53
2023/06/05 07:17:58;;;;;;;6.47;4.03;;;;;;;20.69;92.80;102298.31;5083056;28;20351;-48
2023/06/05 07:20:24;;;;;;;4.95;3.05;;;;;;;21.02;90.47;102302.88;5085158;28;20111;-54
2023/06/05 07:22:49;;;;;;;7.82;3.80;;;;;;;21.46;87.76;102307.56;5084997;28;20016;-53
2023/06/05 07:25:16;;;;;;;8.93;3.40;;;;;;;22.02;84.65;102308.66;5085726;28;20103;-53
2023/06/05 07:27:44;;;;;;;6.32;3.05;;;;;;;22.42;82.80;102297.38;5081076;28;20397;-51
2023/06/05 07:30:10;;;;;;;7.05;3.63;;;;;;;22.75;80.13;102310.78;5067522;28;20035;-49
2023/06/05 07:32:35;;;;;;;4.28;3.28;;;;;;;22.60;79.54;102314.94;5084457;28;20717;-52
2023/06/05 07:35:01;;;;;;;5.72;3.53;;;;;;;22.65;80.04;102304.13;5083676;28;20153;-52
2023/06/05 07:37:27;;;;;;;11.95;3.33;;;;;;;22.67;79.72;102301.97;5085018;28;21129;-54
2023/06/05 07:39:53;;;;;;;5.32;3.53;;;;;;;22.69;78.33;102308.06;5082723;28;20458;-52
2023/06/05 07:42:19;;;;;;;4.30;3.33;;;;;;;22.76;77.86;102297.88;5081361;28;20024;-50
2023/06/05 07:44:45;;;;;;;5.47;3.65;;;;;;;22.98;76.57;102301.84;5084396;28;20035;-53
2023/06/05 07:47:10;;;;;;;4.82;3.42;;;;;;;23.00;76.99;102299.72;5084717;28;20044;-51
2023/06/05 07:49:35;;;;;;;6.22;3.47;;;;;;;23.37;74.70;102302.44;5066084;28;20024;-50
2023/06/05 07:52:01;;;;;;;5.05;3.15;;;;;;;23.65;73.72;102301.81;5084012;28;20115;-51
2023/06/05 07:54:26;;;;;;;7.25;3.22;;;;;;;23.77;72.27;102307.38;5083687;28;20032;-50
2023/06/05 07:56:54;;;;;;;4.85;3.42;;;;;;;23.95;70.53;102300.97;5067142;28;20039;-49
2023/06/05 07:59:24;;;;;;;3.60;3.10;;;;;;;23.81;70.62;102305.00;5084282;28;20059;-50
2023/06/05 08:01:50;;;;;;;7.30;3.50;;;;;;;24.00;71.15;102300.28;5083213;28;20036;-52
2023/06/05 08:04:15;;;;;;;5.28;3.20;;;;;;;24.26;68.90;102291.56;5085218;28;20026;-53
2023/06/05 08:06:41;;;;;;;5.80;4.00;;;;;;;23.92;67.99;102300.63;5084061;28;20169;-51
2023/06/05 08:09:10;;;;;;;6.20;3.80;;;;;;;23.58;69.12;102305.75;5084376;28;20477;-48
2023/06/05 08:11:38;;;;;;;4.72;3.80;;;;;;;23.53;70.11;102298.19;5085249;28;20111;-51
2023/06/05 08:14:07;;;;;;;5.82;3.50;;;;;;;23.71;70.11;102302.78;5083725;28;20478;-50
2023/06/05 08:16:33;;;;;;;7.63;3.60;;;;;;;24.14;69.45;102303.63;5085295;28;20036;-49
2023/06/05 08:18:59;;;;;;;6.00;3.70;;;;;;;24.57;68.63;102303.31;5084951;28;20043;-50
2023/06/05 08:21:24;;;;;;;6.90;3.90;;;;;;;24.63;66.33;102294.09;5084908;28;20401;-50
2023/06/05 08:23:49;;;;;;;8.32;3.58;;;;;;;25.03;64.40;102296.06;5082813;28;20454;-51
2023/06/05 08:26:15;;;;;;;6.28;3.15;;;;;;;25.04;64.70;102296.88;5085082;28;20075;-52
2023/06/05 08:28:41;;;;;;;9.77;3.10;;;;;;;25.29;62.64;102299.38;5067936;28;20363;-54
2023/06/05 08:31:10;;;;;;;7.85;3.08;;;;;;;25.00;64.18;102304.81;5085271;28;20115;-54
2023/06/05 08:33:36;;;;;;;3.15;2.85;;;;;;;25.31;61.92;102297.22;5086191;28;20059;-49
2023/06/05 08:36:02;;;;;;;3.63;2.90;;;;;;;25.26;62.75;102297.09;5085628;28;20024;-52
2023/06/05 08:38:29;;;;;;;3.78;3.15;;;;;;;25.45;61.67;102283.97;5085559;28;20151;-49
2023/06/05 08:41:04;;;;;;;5.20;3.08;;;;;;;25.68;61.51;102283.00;5084856;28;20069;-52
2023/06/05 08:43:29;;;;;;;4.70;3.00;;;;;;;25.37;59.86;102290.69;5086006;28;20067;-50
2023/06/05 08:45:57;;;;;;;4.53;3.40;;;;;;;25.38;59.69;102281.34;5086360;28;20055;-54
2023/06/05 08:48:24;;;;;;;4.93;3.10;;;;;;;25.10;59.82;102279.41;5089546;28;20028;-49
2023/06/05 08:50:50;;;;;;;6.60;3.08;;;;;;;24.72;62.76;102281.66;5087330;28;20051;-51
2023/06/05 08:53:17;;;;;;;3.83;3.20;;;;;;;24.78;63.44;102281.72;5087724;28;20036;-50
2023/06/05 08:55:44;;;;;;;5.70;3.10;;;;;;;25.06;63.55;102270.75;5089235;28;20056;-53
2023/06/05 08:58:12;;;;;;;5.55;3.15;;;;;;;25.54;62.08;102282.47;5088533;28;20079;-51
2023/06/05 09:00:38;;;;;;;4.40;3.10;;;;;;;25.61;62.19;102281.22;5089275;28;20092;-50
2023/06/05 09:03:05;;;;;;;3.22;2.90;;;;;;;25.95;60.16;102281.28;5088792;28;20038;-50
2023/06/05 09:05:32;;;;;;;3.45;2.92;;;;;;;25.93;61.48;102275.19;5087732;28;20456;-51
2023/06/05 09:07:58;;;;;;;3.28;2.58;;;;;;;26.12;58.18;102274.94;5088260;28;20432;-51
2023/06/05 09:10:28;;;;;;;3.17;2.85;;;;;;;25.96;56.81;102280.22;5088485;28;20028;-48
2023/06/05 09:13:01;;;;;;;5.00;3.10;;;;;;;25.68;57.32;102274.75;5086658;28;20477;-52
2023/06/05 09:15:32;;;;;;;6.05;2.78;;;;;;;25.60;59.82;102278.72;5087805;28;20386;-50
2023/06/05 09:18:11;;;;;;;6.82;2.88;;;;;;;26.05;57.85;102273.19;5088335;28;20687;-49
2023/06/05 09:20:38;;;;;;;4.22;2.80;;;;;;;26.11;57.26;102276.03;5084767;28;20028;-50
2023/06/05 09:23:22;;;;;;;3.03;2.47;;;;;;;26.34;56.58;102272.25;5084408;28;20040;-49
2023/06/05 09:25:48;;;;;;;8.98;3.20;;;;;;;26.03;56.88;102267.06;5087363;28;20035;-50
2023/06/05 09:28:15;;;;;;;3.55;2.30;;;;;;;26.49;57.74;102275.25;5084534;28;20036;-53
2023/06/05 09:30:57;;;;;;;;;;;;;;;26.89;55.78;102268.63;5084650;28;20209;-49
2023/06/05 09:33:23;;;;;;;5.13;2.63;;;;;;;26.56;56.24;102258.50;5082905;28;19964;-49
2023/06/05 09:36:08;;;;;;;6.28;2.92;;;;;;;26.77;55.75;102268.72;5082398;28;20707;-50
2023/06/05 09:38:34;;;;;;;5.82;2.65;;;;;;;26.52;56.13;102269.22;5081341;28;20039;-49
2023/06/05 09:41:04;;;;;;;3.03;2.72;;;;;;;26.31;56.50;102259.78;5086451;28;20050;-46
2023/06/05 09:43:30;;;;;;;4.88;3.00;;;;;;;26.11;56.28;102262.22;5088416;28;20067;-52
2023/06/05 09:45:59;;;;;;;3.72;2.90;;;;;;;26.39;55.27;102262.13;5068923;28;20064;-49
2023/06/05 09:48:25;;;;;;;4.68;3.05;;;;;;;26.45;56.03;102263.84;5085552;28;20020;-49
2023/06/05 09:50:52;;;;;;;4.50;2.55;;;;;;;26.44;56.90;102264.13;5084588;28;20032;-50
2023/06/05 09:53:20;;;;;;;3.40;2.53;;;;;;;27.01;54.51;102261.00;5087254;28;20105;-52
2023/06/05 09:55:45;;;;;;;13.07;3.10;;;;;;;26.90;57.05;102257.28;5088210;28;20473;-53
2023/06/05 09:58:15;;;;;;;7.85;3.03;;;;;;;27.31;53.91;102262.50;5086638;28;20044;-48
2023/06/05 10:00:41;;;;;;;6.90;2.58;;;;;;;27.63;54.90;102270.00;5080772;28;20378;-50
2023/06/05 10:03:14;;;;;;;5.90;3.00;;;;;;;27.73;53.06;102265.41;5085048;28;20024;-49
2023/06/05 10:05:40;;;;;;;6.28;2.50;;;;;;;27.36;55.11;102262.56;5086043;28;20097;-51
2023/06/05 10:08:07;;;;;;;4.00;2.58;;;;;;;26.67;56.46;102257.53;5084963;28;20060;-48
2023/06/05 10:10:33;;;;;;;8.55;2.60;;;;;;;26.39;58.96;102253.84;5087018;28;20032;-49
2023/06/05 10:13:00;;;;;;;6.07;2.70;;;;;;;26.50;59.77;102261.16;5081671;28;20028;-48
2023/06/05 10:15:26;;;;;;;7.88;2.50;;;;;;;26.34;60.72;102262.03;5085625;28;20020;-46
2023/06/05 10:17:52;;;;;;;5.97;2.58;;;;;;;26.58;59.96;102248.06;5086005;28;20036;-52
2023/06/05 10:20:17;;;;;;;9.00;2.78;;;;;;;26.65;59.85;102251.47;5083906;28;20027;-47
2023/06/05 10:22:44;;;;;;;4.30;2.30;;;;;;;26.78;59.15;102245.56;5087453;28;20093;-52
2023/06/05 10:25:12;;;;;;;5.38;2.75;;;;;;;27.12;57.60;102256.44;5086978;28;20032;-49
2023/06/05 10:27:56;;;;;;;8.93;2.50;;;;;;;27.35;56.91;102258.09;5088002;28;20381;-51
2023/06/05 10:30:21;;;;;;;6.53;2.67;;;;;;;27.19;56.21;102257.09;5085171;28;20032;-50
2023/06/05 10:33:17;;;;;;;8.77;2.40;;;;;;;26.37;59.13;102244.13;5087819;28;20035;-52
2023/06/05 10:35:54;;;;;;;12.27;2.70;;;;;;;27.04;59.73;102248.59;5084871;28;20278;-50
2023/06/05 10:38:24;;;;;;;10.95;2.75;;;;;;;27.05;58.53;102253.88;5068105;28;20508;-51
2023/06/05 10:40:54;;;;;;;6.10;2.55;;;;;;;27.19;57.72;102246.06;5085888;28;20119;-52
2023/06/05 10:43:46;;;;;;;7.32;2.90;;;;;;;27.41;55.99;102253.47;5085805;28;20490;-48
2023/06/05 10:46:26;;;;;;;7.88;2.50;;;;;;;27.00;55.96;102258.53;5084701;28;20016;-53
2023/06/05 10:49:04;;;;;;;8.15;2.55;;;;;;;26.57;57.51;102249.13;5085581;28;20028;-48
2023/06/05 10:51:43;;;;;;;4.95;2.70;;;;;;;26.22;58.65;102253.00;5084706;28;20039;-49
2023/06/05 10:54:22;;;;;;;10.93;2.72;;;;;;;25.84;60.65;102246.34;5084369;28;20131;-51
2023/06/05 10:56:57;;;;;;;4.85;2.50;;;;;;;25.33;60.99;102243.53;5082534;28;20225;-48
2023/06/05 10:59:37;;;;;;;5.90;2.10;;;;;;;25.83;62.00;102239.97;5083418;28;20075;-52
2023/06/05 11:02:05;;;;;;;24.00;3.10;;;;;;;25.98;62.92;102246.84;5084998;28;20063;-48
2023/06/05 11:04:43;;;;;;;18.05;2.70;;;;;;;26.10;63.26;102244.03;5084654;28;20714;-49
2023/06/05 11:07:16;;;;;;;12.48;2.45;;;;;;;26.33;59.84;102249.34;5084491;28;20027;-50
2023/06/05 11:12:48;;;;;;;;;;;;;;;26.06;58.92;102244.50;5084622;28;20060;-50
2023/06/05 11:15:23;;;;;;;5.20;2.17;;;;;;;26.23;60.16;102243.66;5071185;28;19950;-50
2023/06/05 11:17:48;;;;;;;4.50;2.38;;;;;;;25.95;60.86;102237.16;5082964;28;20396;-52
2023/06/05 11:20:22;;;;;;;6.32;2.38;;;;;;;26.32;59.26;102235.78;5085260;28;20028;-49